createdAt,value
2022-12-18T00:02:07.364Z,101050.47
2022-12-18T00:04:35.305Z,101056.13
2022-12-18T00:07:03.154Z,101064.81
2022-12-18T00:09:39.846Z,101069.41
2022-12-18T00:14:46.926Z,101076.75
2022-12-18T00:17:16.139Z,101083.25
2022-12-18T00:19:44.041Z,101092.72
2022-12-18T00:22:12.021Z,101095.19
2022-12-18T00:24:39.920Z,101095.81
2022-12-18T00:27:07.921Z,101099.44
2022-12-18T00:29:35.925Z,101110.50
2022-12-18T00:32:04.105Z,101110.91
2022-12-18T00:34:33.371Z,101122.41
2022-12-18T00:37:01.293Z,101114.28
2022-12-18T00:39:29.301Z,101109.47
2022-12-18T00:42:14.467Z,101122.88
2022-12-18T00:44:42.544Z,101120.50
2022-12-18T00:47:10.456Z,101129.25
2022-12-18T00:49:39.735Z,101089.75
2022-12-18T00:52:07.502Z,101135.28
2022-12-18T00:54:35.430Z,101148.28
2022-12-18T00:57:06.206Z,101150.31
2022-12-18T00:59:34.181Z,101154.81
2022-12-18T01:02:02.033Z,101165.34
2022-12-18T01:04:34.693Z,101144.50
2022-12-18T01:07:04.011Z,101152.63
2022-12-18T01:09:32.930Z,101163.91
2022-12-18T01:12:00.839Z,101163.06
2022-12-18T01:14:29.006Z,101161.88
2022-12-18T01:16:56.761Z,101159.50
2022-12-18T01:19:25.600Z,101156.03
2022-12-18T01:21:53.421Z,101164.94
2022-12-18T01:24:22.759Z,101159.22
2022-12-18T01:26:51.048Z,101164.66
2022-12-18T01:29:19.057Z,101165.22
2022-12-18T01:31:46.946Z,101168.00
2022-12-18T01:34:14.786Z,101171.47
2022-12-18T01:36:43.302Z,101170.44
2022-12-18T01:39:13.679Z,101177.47
2022-12-18T01:42:02.375Z,101177.00
2022-12-18T01:44:57.958Z,101188.22
2022-12-18T01:47:29.390Z,101185.91
2022-12-18T01:49:58.876Z,101192.56
2022-12-18T01:52:30.213Z,101192.41
2022-12-18T01:54:58.648Z,101199.59
2022-12-18T01:57:30.041Z,101203.22
2022-12-18T02:00:02.480Z,101192.63
2022-12-18T02:02:42.190Z,101191.91
2022-12-18T02:05:12.187Z,101200.63
2022-12-18T02:07:46.522Z,101203.78
2022-12-18T02:10:20.469Z,101204.88
2022-12-18T02:12:58.520Z,101211.63
2022-12-18T02:15:33.776Z,101211.69
2022-12-18T02:18:08.489Z,101216.41
2022-12-18T02:20:41.985Z,101211.03
2022-12-18T02:23:20.894Z,101223.00
2022-12-18T02:26:09.666Z,101227.19
2022-12-18T02:28:44.258Z,101228.75
2022-12-18T02:31:17.797Z,101233.50
2022-12-18T02:33:47.183Z,101233.00
2022-12-18T02:36:18.303Z,101228.81
2022-12-18T02:38:47.959Z,101230.22
2022-12-18T02:41:20.418Z,101227.94
2022-12-18T02:43:49.574Z,101222.41
2022-12-18T02:46:34.277Z,101227.25
2022-12-18T02:49:18.327Z,101226.22
2022-12-18T02:51:54.672Z,101230.94
2022-12-18T02:54:35.797Z,101233.06
2022-12-18T02:57:15.346Z,101236.72
2022-12-18T02:59:50.571Z,101240.19
2022-12-18T03:02:24.210Z,101238.06
2022-12-18T03:05:01.455Z,101242.09
2022-12-18T03:07:41.266Z,101228.31
2022-12-18T03:10:16.522Z,101236.38
2022-12-18T03:12:51.954Z,101238.34
2022-12-18T03:15:25.418Z,101246.81
2022-12-18T03:18:05.409Z,101240.38
2022-12-18T03:20:36.319Z,101247.03
2022-12-18T03:23:09.155Z,101266.28
2022-12-18T03:25:41.785Z,101269.41
2022-12-18T03:28:15.064Z,101271.16
2022-12-18T03:30:46.712Z,101262.41
2022-12-18T03:33:20.636Z,101264.84
2022-12-18T03:35:51.155Z,101261.38
2022-12-18T03:38:20.612Z,101258.44
2022-12-18T03:41:01.464Z,101269.97
2022-12-18T03:43:45.821Z,101277.19
2022-12-18T03:46:24.510Z,101279.63
2022-12-18T03:48:58.290Z,101273.97
2022-12-18T03:51:30.550Z,101275.72
2022-12-18T03:54:02.176Z,101273.97
2022-12-18T03:56:39.296Z,101262.88
2022-12-18T03:59:12.105Z,101276.72
2022-12-18T04:01:43.923Z,101290.69
2022-12-18T04:04:16.686Z,101290.34
2022-12-18T04:06:47.885Z,101282.69
2022-12-18T04:09:16.806Z,101293.19
2022-12-18T04:11:48.309Z,101298.63
2022-12-18T04:14:19.120Z,101303.69
2022-12-18T04:16:50.916Z,101305.28
2022-12-18T04:19:22.714Z,101313.63
2022-12-18T04:21:52.329Z,101316.06
2022-12-18T04:24:20.391Z,101316.78
2022-12-18T04:27:05.031Z,101312.28
2022-12-18T04:29:41.913Z,101322.06
2022-12-18T04:32:10.296Z,101325.22
2022-12-18T04:34:39.137Z,101330.09
2022-12-18T04:37:07.057Z,101330.09
2022-12-18T04:39:34.917Z,101338.47
2022-12-18T04:42:08.198Z,101339.19
2022-12-18T04:44:36.223Z,101340.59
2022-12-18T04:47:05.768Z,101309.97
2022-12-18T04:49:33.572Z,101346.72
2022-12-18T04:52:01.416Z,101331.53
2022-12-18T04:54:29.988Z,101335.72
2022-12-18T04:56:57.900Z,101328.47
2022-12-18T04:59:25.739Z,101348.66
2022-12-18T05:01:53.554Z,101350.41
2022-12-18T05:04:23.282Z,101345.50
2022-12-18T05:06:51.199Z,101351.09
2022-12-18T05:09:19.052Z,101350.06
2022-12-18T05:11:47.644Z,101351.34
2022-12-18T05:14:15.410Z,101355.34
2022-12-18T05:16:43.282Z,101352.22
2022-12-18T05:19:11.913Z,101359.69
2022-12-18T05:21:41.420Z,101360.41
2022-12-18T05:24:09.390Z,101363.59
2022-12-18T05:26:37.298Z,101368.31
2022-12-18T05:29:05.193Z,101358.53
2022-12-18T05:31:38.868Z,101364.13
2022-12-18T05:34:07.639Z,101371.34
2022-12-18T05:36:35.412Z,101373.28
2022-12-18T05:39:05.059Z,101374.66
2022-12-18T05:41:34.019Z,101382.38
2022-12-18T05:44:03.255Z,101371.03
2022-12-18T05:46:31.462Z,101376.31
2022-12-18T05:49:01.482Z,101381.19
2022-12-18T05:51:29.824Z,101386.94
2022-12-18T05:53:57.658Z,101391.44
2022-12-18T05:56:27.057Z,101396.34
2022-12-18T05:58:55.790Z,101395.63
2022-12-18T06:01:26.211Z,101398.78
2022-12-18T06:03:54.422Z,101396.56
2022-12-18T06:06:24.791Z,101386.81
2022-12-18T06:08:53.154Z,101417.34
2022-12-18T06:11:23.408Z,101421.56
2022-12-18T06:13:58.238Z,101414.41
2022-12-18T06:16:27.521Z,101409.00
2022-12-18T06:18:55.508Z,101424.69
2022-12-18T06:21:23.427Z,101433.94
2022-12-18T06:23:51.260Z,101433.25
2022-12-18T06:26:22.138Z,101442.16
2022-12-18T06:28:55.523Z,101442.16
2022-12-18T06:31:23.435Z,101451.41
2022-12-18T06:33:51.464Z,101427.88
2022-12-18T06:36:19.411Z,101449.16
2022-12-18T06:38:47.304Z,101457.16
2022-12-18T06:41:17.546Z,101454.72
2022-12-18T06:43:46.111Z,101459.41
2022-12-18T06:46:15.412Z,101452.59
2022-12-18T06:48:43.579Z,101466.56
2022-12-18T06:51:11.369Z,101462.41
2022-12-18T06:53:40.106Z,101460.66
2022-12-18T06:56:10.913Z,101433.75
2022-12-18T06:58:39.703Z,101467.25
2022-12-18T07:01:09.920Z,101477.72
2022-12-18T07:03:39.882Z,101478.25
2022-12-18T07:06:14.281Z,101482.97
2022-12-18T07:08:42.144Z,101489.97
2022-12-18T07:11:10.053Z,101486.50
2022-12-18T07:13:38.283Z,101498.88
2022-12-18T07:16:14.410Z,101504.44
2022-12-18T07:18:46.832Z,101504.97
2022-12-18T07:21:16.735Z,101508.81
2022-12-18T07:23:45.790Z,101511.59
2022-12-18T07:26:14.953Z,101515.81
2022-12-18T07:28:44.140Z,101523.47
2022-12-18T07:31:14.310Z,101530.81
2022-12-18T07:33:43.062Z,101540.75
2022-12-18T07:36:13.368Z,101544.06
2022-12-18T07:38:41.532Z,101550.34
2022-12-18T07:41:11.729Z,101552.06
2022-12-18T07:43:40.934Z,101552.97
2022-12-18T07:46:12.751Z,101548.25
2022-12-18T07:48:42.197Z,101538.66
2022-12-18T07:51:14.382Z,101546.16
2022-12-18T07:53:43.689Z,101558.38
2022-12-18T07:56:31.116Z,101557.66
2022-12-18T07:59:00.115Z,101559.75
2022-12-18T08:01:28.671Z,101561.88
2022-12-18T08:03:56.744Z,101556.09
2022-12-18T08:06:26.022Z,101568.34
2022-12-18T08:08:54.848Z,101564.66
2022-12-18T08:11:22.932Z,101570.94
2022-12-18T08:13:50.824Z,101572.69
2022-12-18T08:16:19.674Z,101567.09
2022-12-18T08:18:48.650Z,101576.50
2022-12-18T08:21:19.189Z,101566.72
2022-12-18T08:23:51.805Z,101573.38
2022-12-18T08:26:21.002Z,101580.72
2022-12-18T08:28:50.157Z,101579.09
2022-12-18T08:31:19.492Z,101581.56
2022-12-18T08:33:49.908Z,101584.00
2022-12-18T08:36:18.132Z,101585.56
2022-12-18T08:38:46.054Z,101583.81
2022-12-18T08:41:16.937Z,101591.16
2022-12-18T08:44:02.598Z,101604.06
2022-12-18T08:46:35.951Z,101598.09
2022-12-18T08:49:05.095Z,101596.34
2022-12-18T08:51:33.301Z,101586.41
2022-12-18T08:54:01.180Z,101589.69
2022-12-18T08:56:30.944Z,101584.78
2022-12-18T08:58:59.437Z,101590.94
2022-12-18T09:01:27.749Z,101585.66
2022-12-18T09:03:55.751Z,101569.78
2022-12-18T09:06:24.578Z,101584.41
2022-12-18T09:08:52.417Z,101583.19
2022-12-18T09:11:22.955Z,101585.81
2022-12-18T09:13:52.870Z,101593.69
2022-12-18T09:16:22.035Z,101590.69
2022-12-18T09:18:51.867Z,101589.06
2022-12-18T09:21:21.558Z,101580.16
2022-12-18T09:23:51.968Z,101593.78
2022-12-18T09:26:19.842Z,101605.66
2022-12-18T09:28:47.986Z,101599.91
2022-12-18T09:31:19.784Z,101611.22
2022-12-18T09:33:47.692Z,101605.59
2022-12-18T09:36:17.918Z,101597.88
2022-12-18T09:38:46.493Z,101599.31
2022-12-18T09:41:35.845Z,101590.31
2022-12-18T09:44:07.528Z,101611.09
2022-12-18T09:46:41.441Z,101608.66
2022-12-18T09:49:15.446Z,101611.09
2022-12-18T09:51:48.309Z,101616.69
2022-12-18T09:54:20.608Z,101610.22
2022-12-18T09:56:48.957Z,101609.88
2022-12-18T09:59:23.123Z,101611.44
2022-12-18T10:01:52.585Z,101603.16
2022-12-18T10:04:20.695Z,101603.69
2022-12-18T10:06:56.508Z,101599.63
2022-12-18T10:09:30.754Z,101601.50
2022-12-18T10:12:09.490Z,101604.09
2022-12-18T10:14:45.373Z,101586.78
2022-12-18T10:17:27.575Z,101596.34
2022-12-18T10:20:01.511Z,101605.25
2022-12-18T10:22:47.931Z,101600.84
2022-12-18T10:25:22.575Z,101601.88
2022-12-18T10:27:54.687Z,101588.22
2022-12-18T10:30:24.945Z,101593.38
2022-12-18T10:32:55.169Z,101597.94
2022-12-18T10:35:28.126Z,101595.50
2022-12-18T10:38:07.521Z,101601.78
2022-12-18T10:40:51.507Z,101594.94
2022-12-18T10:43:24.057Z,101591.44
2022-12-18T10:46:02.748Z,101589.69
2022-12-18T10:48:34.038Z,101580.41
2022-12-18T10:51:10.913Z,101579.38
2022-12-18T10:53:44.534Z,101576.41
2022-12-18T10:56:13.014Z,101579.69
2022-12-18T10:58:41.822Z,101578.56
2022-12-18T11:01:13.210Z,101575.66
2022-12-18T11:03:44.575Z,101568.66
2022-12-18T11:06:14.800Z,101565.97
2022-12-18T11:08:44.345Z,101570.81
2022-12-18T11:11:21.493Z,101571.50
2022-12-18T11:14:00.024Z,101547.72
2022-12-18T11:16:35.388Z,101558.09
2022-12-18T11:19:23.615Z,101551.78
2022-12-18T11:21:51.624Z,101559.81
2022-12-18T11:24:27.047Z,101552.78
2022-12-18T11:26:59.702Z,101550.66
2022-12-18T11:29:34.572Z,101560.78
2022-12-18T11:32:25.937Z,101563.53
2022-12-18T11:35:04.079Z,101548.81
2022-12-18T11:37:34.841Z,101558.63
2022-12-18T11:40:09.088Z,101559.66
2022-12-18T11:42:43.463Z,101560.00
2022-12-18T11:45:26.995Z,101548.75
2022-12-18T11:48:00.974Z,101549.09
2022-12-18T11:50:35.903Z,101558.50
2022-12-18T11:53:06.375Z,101547.25
2022-12-18T11:55:43.434Z,101544.25
2022-12-18T11:58:22.466Z,101541.63
2022-12-18T12:01:02.308Z,101550.03
2022-12-18T12:03:49.664Z,101541.94
2022-12-18T12:06:27.346Z,101552.09
2022-12-18T12:09:06.282Z,101550.66
2022-12-18T12:11:45.152Z,101556.59
2022-12-18T12:14:43.013Z,101563.44
2022-12-18T12:17:19.384Z,101568.66
2022-12-18T12:19:53.588Z,101565.94
2022-12-18T12:22:31.113Z,101560.66
2022-12-18T12:25:13.491Z,101569.91
2022-12-18T12:27:52.215Z,101563.75
2022-12-18T12:30:23.078Z,101565.50
2022-12-18T12:33:06.877Z,101572.38
2022-12-18T12:35:48.784Z,101571.25
2022-12-18T12:38:23.041Z,101581.69
2022-12-18T12:41:02.489Z,101576.53
2022-12-18T12:43:39.148Z,101579.78
2022-12-18T12:46:12.885Z,101580.56
2022-12-18T12:48:45.455Z,101578.88
2022-12-18T12:51:18.398Z,101582.84
2022-12-18T12:53:48.198Z,101585.19
2022-12-18T12:56:18.924Z,101588.44
2022-12-18T12:58:58.329Z,101592.50
2022-12-18T13:01:36.047Z,101589.97
2022-12-18T13:04:17.708Z,101592.31
2022-12-18T13:06:52.380Z,101576.97
2022-12-18T13:09:21.985Z,101587.50
2022-12-18T13:12:08.188Z,101591.56
2022-12-18T13:14:38.914Z,101594.78
2022-12-18T13:17:31.153Z,101586.28
2022-12-18T13:20:08.996Z,101580.66
2022-12-18T13:22:38.986Z,101600.38
2022-12-18T13:25:31.390Z,101592.00
2022-12-18T13:28:05.367Z,101594.91
2022-12-18T13:30:58.136Z,101590.28
2022-12-18T13:33:51.086Z,101587.97
2022-12-18T13:36:31.268Z,101575.81
2022-12-18T13:39:32.707Z,101583.63
2022-12-18T13:42:57.251Z,101589.16
2022-12-18T13:45:43.762Z,101564.22
2022-12-18T13:48:20.319Z,101579.75
2022-12-18T13:50:54.018Z,101586.84
2022-12-18T13:53:25.739Z,101589.47
2022-12-18T13:55:54.026Z,101589.47
2022-12-18T13:58:21.788Z,101595.84
2022-12-18T14:00:52.362Z,101596.72
2022-12-18T14:03:24.069Z,101608.00
2022-12-18T14:06:02.852Z,101613.81
2022-12-18T14:08:37.912Z,101612.94
2022-12-18T14:11:07.892Z,101611.19
2022-12-18T14:13:41.353Z,101611.19
2022-12-18T14:16:16.297Z,101614.94
2022-12-18T14:18:48.507Z,101613.91
2022-12-18T14:21:22.818Z,101614.03
2022-12-18T14:24:04.300Z,101578.09
2022-12-18T14:26:34.223Z,101624.13
2022-12-18T14:29:16.331Z,101631.78
2022-12-18T14:31:46.603Z,101633.66
2022-12-18T14:34:17.908Z,101641.47
2022-12-18T14:36:54.840Z,101637.09
2022-12-18T14:39:23.185Z,101618.03
2022-12-18T14:41:51.873Z,101639.56
2022-12-18T14:44:19.703Z,101640.97
2022-12-18T14:46:50.014Z,101639.75
2022-12-18T14:49:24.634Z,101626.72
2022-12-18T14:51:55.128Z,101640.28
2022-12-18T14:54:25.338Z,101657.44
2022-12-18T14:56:58.689Z,101670.53
2022-12-18T14:59:28.191Z,101671.47
2022-12-18T15:02:06.032Z,101678.06
2022-12-18T15:04:36.552Z,101672.50
2022-12-18T15:07:08.068Z,101675.19
2022-12-18T15:09:36.036Z,101646.19
2022-12-18T15:12:04.576Z,101691.97
2022-12-18T15:14:40.348Z,101688.00
2022-12-18T15:17:19.631Z,101682.31
2022-12-18T15:19:49.667Z,101692.47
2022-12-18T15:22:27.576Z,101698.47
2022-12-18T15:24:56.578Z,101699.53
2022-12-18T15:27:28.254Z,101717.09
2022-12-18T15:30:19.020Z,101724.00
2022-12-18T15:32:48.691Z,101715.44
2022-12-18T15:35:20.217Z,101718.44
2022-12-18T15:37:48.356Z,101709.88
2022-12-18T15:40:17.880Z,101714.78
2022-12-18T15:43:05.185Z,101691.78
2022-12-18T15:45:33.146Z,101714.19
2022-12-18T15:48:02.494Z,101725.78
2022-12-18T15:50:30.477Z,101727.28
2022-12-18T15:52:58.892Z,101729.06
2022-12-18T15:55:44.097Z,101733.97
2022-12-18T15:58:12.911Z,101741.16
2022-12-18T16:00:42.539Z,101738.34
2022-12-18T16:03:12.181Z,101738.91
2022-12-18T16:05:40.290Z,101740.00
2022-12-18T16:08:08.129Z,101741.41
2022-12-18T16:10:37.065Z,101743.34
2022-12-18T16:13:04.902Z,101743.00
2022-12-18T16:15:32.698Z,101748.78
2022-12-18T16:18:00.504Z,101751.94
2022-12-18T16:20:29.647Z,101736.88
2022-12-18T16:22:57.431Z,101736.88
2022-12-18T16:25:28.076Z,101732.69
2022-12-18T16:27:57.197Z,101737.94
2022-12-18T16:30:28.569Z,101737.59
2022-12-18T16:32:59.871Z,101730.31
2022-12-18T16:35:29.124Z,101735.38
2022-12-18T16:37:57.116Z,101735.38
2022-12-18T16:40:25.637Z,101734.84
2022-12-18T16:42:53.548Z,101725.03
2022-12-18T16:45:21.485Z,101726.78
2022-12-18T16:47:50.342Z,101724.31
2022-12-18T16:50:18.264Z,101727.47
2022-12-18T16:52:47.428Z,101724.69
2022-12-18T16:55:15.336Z,101737.84
2022-12-18T16:57:43.188Z,101727.22
2022-12-18T17:00:12.603Z,101737.72
2022-12-18T17:02:40.767Z,101737.72
2022-12-18T17:05:09.075Z,101737.38
2022-12-18T17:07:37.034Z,101735.28
2022-12-18T17:10:07.524Z,101728.31
2022-12-18T17:12:35.774Z,101725.50
2022-12-18T17:15:03.872Z,101727.66
2022-12-18T17:17:31.703Z,101737.75
2022-12-18T17:19:59.663Z,101743.00
2022-12-18T17:22:28.046Z,101737.22
2022-12-18T17:24:55.959Z,101738.09
2022-12-18T17:27:25.151Z,101743.88
2022-12-18T17:29:52.954Z,101737.81
2022-12-18T17:32:20.771Z,101734.31
2022-12-18T17:34:48.726Z,101732.22
2022-12-18T17:37:16.823Z,101706.72
2022-12-18T17:39:44.656Z,101729.94
2022-12-18T17:42:15.288Z,101737.97
2022-12-18T17:44:45.760Z,101744.81
2022-12-18T17:47:14.132Z,101723.16
2022-12-18T17:49:42.027Z,101742.53
2022-12-18T17:52:10.350Z,101752.16
2022-12-18T17:54:39.743Z,101754.94
2022-12-18T17:57:07.820Z,101766.16
2022-12-18T17:59:35.774Z,101772.09
2022-12-18T18:02:05.142Z,101764.06
2022-12-18T18:04:33.140Z,101767.91
2022-12-18T18:07:00.973Z,101769.13
2022-12-18T18:09:28.977Z,101767.25
2022-12-18T18:12:14.979Z,101767.25
2022-12-18T18:14:42.937Z,101769.34
2022-12-18T18:17:12.719Z,101770.09
2022-12-18T18:19:42.069Z,101767.09
2022-12-18T18:22:11.785Z,101766.75
2022-12-18T18:24:39.817Z,101771.28
2022-12-18T18:27:07.696Z,101778.81
2022-12-18T18:29:36.402Z,101774.28
2022-12-18T18:32:04.877Z,101777.78
2022-12-18T18:34:34.238Z,101777.78
2022-12-18T18:37:02.996Z,101787.22
2022-12-18T18:39:31.358Z,101769.03
2022-12-18T18:42:00.887Z,101792.28
2022-12-18T18:44:30.572Z,101793.00
2022-12-18T18:46:59.367Z,101792.63
2022-12-18T18:49:28.511Z,101794.22
2022-12-18T18:51:59.185Z,101801.91
2022-12-18T18:54:27.579Z,101794.03
2022-12-18T18:57:19.376Z,101811.53
2022-12-18T18:59:43.421Z,101810.31
2022-12-18T19:02:13.578Z,101812.59
2022-12-18T19:04:46.047Z,101815.88
2022-12-18T19:07:18.554Z,101807.50
2022-12-18T19:09:58.143Z,101811.88
2022-12-18T19:12:50.825Z,101815.38
2022-12-18T19:15:18.661Z,101819.06
2022-12-18T19:17:47.097Z,101828.16
2022-12-18T19:20:15.743Z,101804.34
2022-12-18T19:22:49.705Z,101818.00
2022-12-18T19:25:37.564Z,101791.75
2022-12-18T19:28:18.214Z,101825.50
2022-12-18T19:30:55.359Z,101828.81
2022-12-18T19:33:44.646Z,101823.56
2022-12-18T19:36:15.535Z,101816.22
2022-12-18T19:38:45.573Z,101820.41
2022-12-18T19:41:15.214Z,101809.94
2022-12-18T19:43:43.412Z,101788.94
2022-12-18T19:46:15.168Z,101822.50
2022-12-18T19:48:45.063Z,101817.63
2022-12-18T19:51:16.575Z,101816.22
2022-12-18T19:53:46.602Z,101803.31
2022-12-18T19:56:16.187Z,101809.59
2022-12-18T19:58:45.149Z,101844.91
2022-12-18T20:01:13.542Z,101855.38
2022-12-18T20:03:46.965Z,101842.75
2022-12-18T20:06:24.729Z,101847.66
2022-12-18T20:08:57.989Z,101845.22
2022-12-18T20:11:28.966Z,101832.31
2022-12-18T20:13:57.214Z,101845.41
2022-12-18T20:16:25.622Z,101844.19
2022-12-18T20:18:53.648Z,101843.47
2022-12-18T20:21:21.740Z,101850.78
2022-12-18T20:23:49.628Z,101852.53
2022-12-18T20:26:19.315Z,101846.06
2022-12-18T20:28:47.282Z,101853.75
2022-12-18T20:31:15.337Z,101860.16
2022-12-18T20:33:44.575Z,101860.16
2022-12-18T20:36:20.155Z,101863.66
2022-12-18T20:38:51.528Z,101854.56
2022-12-18T20:41:24.377Z,101861.38
2022-12-18T20:43:52.348Z,101850.91
2022-12-18T20:46:20.494Z,101861.41
2022-12-18T20:48:48.746Z,101855.28
2022-12-18T20:51:18.837Z,101860.91
2022-12-18T20:53:47.770Z,101853.59
2022-12-18T20:56:20.828Z,101848.00
2022-12-18T20:58:53.664Z,101844.53
2022-12-18T21:01:24.886Z,101835.81
2022-12-18T21:03:53.530Z,101840.19
2022-12-18T21:06:23.600Z,101835.47
2022-12-18T21:08:51.596Z,101841.06
2022-12-18T21:11:45.564Z,101836.97
2022-12-18T21:14:17.797Z,101836.81
2022-12-18T21:16:46.626Z,101807.75
2022-12-18T21:19:18.746Z,101838.56
2022-12-18T21:21:47.629Z,101842.34
2022-12-18T21:24:16.361Z,101845.31
2022-12-18T21:26:46.319Z,101838.81
2022-12-18T21:29:17.811Z,101841.94
2022-12-18T21:31:46.370Z,101840.16
2022-12-18T21:34:17.005Z,101850.56
2022-12-18T21:36:45.025Z,101851.63
2022-12-18T21:39:14.434Z,101855.13
2022-12-18T21:41:59.955Z,101854.13
2022-12-18T21:44:29.546Z,101857.44
2022-12-18T21:47:04.582Z,101857.56
2022-12-18T21:49:37.374Z,101858.16
2022-12-18T21:52:05.610Z,101855.00
2022-12-18T21:54:33.517Z,101854.63
2022-12-18T21:57:03.030Z,101858.13
2022-12-18T21:59:34.719Z,101865.47
2022-12-18T22:02:05.058Z,101864.75
2022-12-18T22:04:33.183Z,101866.53
2022-12-18T22:07:02.580Z,101858.75
2022-12-18T22:09:30.448Z,101857.06
2022-12-18T22:11:59.068Z,101843.28
2022-12-18T22:14:27.188Z,101856.09
2022-12-18T22:16:57.500Z,101862.59
2022-12-18T22:19:26.584Z,101855.97
2022-12-18T22:21:55.267Z,101861.72
2022-12-18T22:24:26.233Z,101860.84
2022-12-18T22:27:01.782Z,101837.56
2022-12-18T22:29:44.069Z,101844.81
2022-12-18T22:32:17.820Z,101840.97
2022-12-18T22:35:04.882Z,101844.47
2022-12-18T22:37:34.054Z,101859.16
2022-12-18T22:40:03.075Z,101855.28
2022-12-18T22:42:32.534Z,101855.28
2022-12-18T22:45:00.671Z,101857.41
2022-12-18T22:47:30.813Z,101853.22
2022-12-18T22:49:59.396Z,101850.09
2022-12-18T22:52:27.243Z,101859.19
2022-12-18T22:54:55.302Z,101844.84
2022-12-18T22:57:23.784Z,101828.38
2022-12-18T22:59:52.166Z,101851.06
2022-12-18T23:02:20.790Z,101854.03
2022-12-18T23:04:50.161Z,101856.66
2022-12-18T23:07:18.143Z,101850.34
2022-12-18T23:09:46.118Z,101853.63
2022-12-18T23:12:17.816Z,101853.06
2022-12-18T23:14:47.199Z,101843.59
2022-12-18T23:17:15.199Z,101840.84
2022-12-18T23:19:48.779Z,101840.16
2022-12-18T23:22:18.642Z,101843.28
2022-12-18T23:24:47.425Z,101851.34
2022-12-18T23:27:15.354Z,101843.41
2022-12-18T23:29:43.437Z,101846.88
2022-12-18T23:32:13.540Z,101851.06
2022-12-18T23:34:41.490Z,101844.41
2022-12-18T23:37:09.505Z,101840.88
2022-12-18T23:39:38.847Z,101842.44
2022-12-18T23:42:06.948Z,101841.41
2022-12-18T23:44:35.021Z,101839.47
2022-12-18T23:47:04.559Z,101842.78
2022-12-18T23:49:32.668Z,101848.69
2022-12-18T23:52:00.599Z,101845.91
2022-12-18T23:54:32.878Z,101848.03
2022-12-18T23:57:02.790Z,101833.31
2022-12-18T23:59:30.734Z,101838.59
